createdAt,value
2019-05-22T00:00:28.758Z,1004.71
2019-05-22T00:01:28.775Z,1004.73
2019-05-22T00:02:28.735Z,1004.79
2019-05-22T00:03:28.724Z,1004.83
2019-05-22T00:04:28.713Z,1004.83
2019-05-22T00:05:28.701Z,1004.82
2019-05-22T00:06:28.690Z,1004.81
2019-05-22T00:07:28.711Z,1004.83
2019-05-22T00:08:28.669Z,1004.86
2019-05-22T00:09:28.659Z,1004.88
2019-05-22T00:10:28.646Z,1004.86
2019-05-22T00:11:28.635Z,1004.91
2019-05-22T00:12:28.623Z,1004.88
2019-05-22T00:13:28.618Z,1004.92
2019-05-22T00:14:28.602Z,1004.87
2019-05-22T00:15:28.589Z,1004.93
2019-05-22T00:16:28.598Z,1004.96
2019-05-22T00:17:28.567Z,1004.95
2019-05-22T00:18:28.556Z,1004.96
2019-05-22T00:19:28.556Z,1004.93
2019-05-22T00:20:28.533Z,1004.94
2019-05-22T00:21:28.528Z,1004.90
2019-05-22T00:22:28.511Z,1004.95
2019-05-22T00:23:28.500Z,1004.94
2019-05-22T00:24:28.491Z,1004.93
2019-05-22T00:25:28.486Z,1004.94
2019-05-22T00:26:28.466Z,1004.91
2019-05-22T00:27:28.456Z,1004.91
2019-05-22T00:28:28.445Z,1004.89
2019-05-22T00:29:28.447Z,1004.91
2019-05-22T00:30:28.423Z,1004.93
2019-05-22T00:31:28.437Z,1004.91
2019-05-22T00:32:28.399Z,1004.99
2019-05-22T00:33:28.389Z,1004.98
2019-05-22T00:34:28.377Z,1005.02
2019-05-22T00:35:28.366Z,1005.02
2019-05-22T00:36:28.355Z,1005.04
2019-05-22T00:37:28.374Z,1005.03
2019-05-22T00:38:28.345Z,1005.06
2019-05-22T00:39:28.325Z,1005.09
2019-05-22T00:40:28.310Z,1005.06
2019-05-22T00:41:28.299Z,1005.09
2019-05-22T00:42:28.287Z,1005.09
2019-05-22T00:43:28.310Z,1005.12
2019-05-22T00:44:28.266Z,1005.13
2019-05-22T00:45:28.258Z,1005.09
2019-05-22T00:46:28.243Z,1005.13
2019-05-22T00:47:28.232Z,1005.20
2019-05-22T00:48:28.221Z,1005.16
2019-05-22T00:49:28.229Z,1005.17
2019-05-22T00:50:28.200Z,1005.14
2019-05-22T00:51:28.187Z,1005.11
2019-05-22T00:52:28.175Z,1005.18
2019-05-22T00:53:28.165Z,1005.19
2019-05-22T00:54:28.153Z,1005.24
2019-05-22T00:55:28.152Z,1005.21
2019-05-22T00:56:28.139Z,1005.23
2019-05-22T00:57:28.120Z,1005.30
2019-05-22T00:58:28.109Z,1005.24
2019-05-22T00:59:28.098Z,1005.29
2019-05-22T01:00:28.086Z,1005.29
2019-05-22T01:01:28.116Z,1005.26
2019-05-22T01:02:28.066Z,1005.29
2019-05-22T01:03:28.054Z,1005.30
2019-05-22T01:04:28.042Z,1005.33
2019-05-22T01:05:28.032Z,1005.32
2019-05-22T01:06:28.019Z,1005.35
2019-05-22T01:07:28.037Z,1005.31
2019-05-22T01:08:27.997Z,1005.36
2019-05-22T01:09:27.986Z,1005.37
2019-05-22T01:10:27.975Z,1005.33
2019-05-22T01:11:27.965Z,1005.36
2019-05-22T01:12:27.953Z,1005.37
2019-05-22T01:13:27.948Z,1005.38
2019-05-22T01:14:41.922Z,1005.40
2019-05-22T01:15:28.921Z,1005.34
2019-05-22T01:16:27.908Z,1005.35
2019-05-22T01:17:27.896Z,1005.32
2019-05-22T01:18:27.886Z,1005.33
2019-05-22T01:19:27.881Z,1005.38
2019-05-22T01:20:27.863Z,1005.43
2019-05-22T01:21:27.852Z,1005.39
2019-05-22T01:22:27.840Z,1005.40
2019-05-22T01:23:27.829Z,1005.43
2019-05-22T01:24:27.820Z,1005.47
2019-05-22T01:25:27.832Z,1005.48
2019-05-22T01:26:27.796Z,1005.47
2019-05-22T01:27:27.785Z,1005.53
2019-05-22T01:28:27.773Z,1005.55
2019-05-22T01:29:27.762Z,1005.53
2019-05-22T01:30:27.752Z,1005.56
2019-05-22T01:31:27.770Z,1005.57
2019-05-22T01:32:27.728Z,1005.59
2019-05-22T01:33:27.717Z,1005.57
2019-05-22T01:34:27.706Z,1005.60
2019-05-22T01:35:27.696Z,1005.55
2019-05-22T01:36:27.684Z,1005.59
2019-05-22T01:37:27.712Z,1005.61
2019-05-22T01:38:27.662Z,1005.61
2019-05-22T01:39:27.651Z,1005.62
2019-05-22T01:40:27.640Z,1005.59
2019-05-22T01:41:27.628Z,1005.60
2019-05-22T01:42:27.618Z,1005.62
2019-05-22T01:43:27.622Z,1005.60
2019-05-22T01:44:27.595Z,1005.57
2019-05-22T01:45:27.583Z,1005.59
2019-05-22T01:46:27.572Z,1005.59
2019-05-22T01:47:27.561Z,1005.55
2019-05-22T01:48:27.550Z,1005.58
2019-05-22T01:49:27.546Z,1005.56
2019-05-22T01:50:27.527Z,1005.56
2019-05-22T01:51:27.516Z,1005.56
2019-05-22T01:52:27.505Z,1005.55
2019-05-22T01:53:27.494Z,1005.53
2019-05-22T01:54:27.483Z,1005.50
2019-05-22T01:55:27.493Z,1005.50
2019-05-22T01:56:27.461Z,1005.46
2019-05-22T01:57:27.450Z,1005.50
2019-05-22T01:58:27.438Z,1005.52
2019-05-22T01:59:27.426Z,1005.52
2019-05-22T02:00:27.417Z,1005.51
2019-05-22T02:01:27.435Z,1005.54
2019-05-22T02:02:27.394Z,1005.50
2019-05-22T02:03:27.384Z,1005.54
2019-05-22T02:04:27.370Z,1005.54
2019-05-22T02:05:27.361Z,1005.53
2019-05-22T02:06:27.350Z,1005.56
2019-05-22T02:07:27.371Z,1005.58
2019-05-22T02:08:27.327Z,1005.60
2019-05-22T02:09:27.316Z,1005.60
2019-05-22T02:10:27.304Z,1005.60
2019-05-22T02:11:27.294Z,1005.65
2019-05-22T02:12:27.282Z,1005.62
2019-05-22T02:13:27.304Z,1005.61
2019-05-22T02:14:27.260Z,1005.59
2019-05-22T02:15:27.249Z,1005.65
2019-05-22T02:16:27.240Z,1005.63
2019-05-22T02:17:27.227Z,1005.59
2019-05-22T02:18:27.215Z,1005.60
2019-05-22T02:19:27.234Z,1005.58
2019-05-22T02:20:27.192Z,1005.59
2019-05-22T02:21:27.182Z,1005.61
2019-05-22T02:22:27.170Z,1005.63
2019-05-22T02:23:27.160Z,1005.60
2019-05-22T02:24:27.149Z,1005.58
2019-05-22T02:25:27.144Z,1005.65
2019-05-22T02:26:27.126Z,1005.61
2019-05-22T02:27:27.114Z,1005.56
2019-05-22T02:28:27.108Z,1005.59
2019-05-22T02:29:27.095Z,1005.61
2019-05-22T02:30:27.082Z,1005.60
2019-05-22T02:31:27.096Z,1005.60
2019-05-22T02:32:27.059Z,1005.64
2019-05-22T02:33:27.050Z,1005.61
2019-05-22T02:34:27.037Z,1005.67
2019-05-22T02:35:27.026Z,1005.60
2019-05-22T02:36:27.029Z,1005.61
2019-05-22T02:37:27.034Z,1005.64
2019-05-22T02:38:26.998Z,1005.63
2019-05-22T02:39:26.990Z,1005.64
2019-05-22T02:40:26.971Z,1005.62
2019-05-22T02:41:26.959Z,1005.67
2019-05-22T02:42:26.949Z,1005.67
2019-05-22T02:43:26.968Z,1005.63
2019-05-22T02:44:26.926Z,1005.60
2019-05-22T02:45:26.916Z,1005.62
2019-05-22T02:46:26.904Z,1005.63
2019-05-22T02:47:26.899Z,1005.72
2019-05-22T02:48:26.884Z,1005.72
2019-05-22T02:49:26.877Z,1005.70
2019-05-22T02:50:26.859Z,1005.72
2019-05-22T02:51:26.848Z,1005.73
2019-05-22T02:52:26.836Z,1005.78
2019-05-22T02:53:26.833Z,1005.77
2019-05-22T02:54:26.815Z,1005.78
2019-05-22T02:55:26.832Z,1005.77
2019-05-22T02:56:26.792Z,1005.79
2019-05-22T02:57:26.785Z,1005.85
2019-05-22T02:58:26.770Z,1005.84
2019-05-22T02:59:26.759Z,1005.84
2019-05-22T03:00:26.750Z,1005.85
2019-05-22T03:01:26.745Z,1005.88
2019-05-22T03:02:26.725Z,1005.91
2019-05-22T03:03:26.713Z,1005.91
2019-05-22T03:04:26.702Z,1005.96
2019-05-22T03:05:26.691Z,1005.94
2019-05-22T03:06:26.680Z,1005.93
2019-05-22T03:07:26.708Z,1005.96
2019-05-22T03:08:26.659Z,1005.99
2019-05-22T03:09:26.646Z,1006.00
2019-05-22T03:10:26.646Z,1005.97
2019-05-22T03:11:26.624Z,1005.98
2019-05-22T03:12:26.613Z,1005.96
2019-05-22T03:13:26.609Z,1005.98
2019-05-22T03:14:26.590Z,1006.03
2019-05-22T03:15:26.586Z,1006.00
2019-05-22T03:16:26.571Z,1006.04
2019-05-22T03:17:26.556Z,1006.06
2019-05-22T03:18:26.556Z,1006.03
2019-05-22T03:19:26.564Z,1006.06
2019-05-22T03:20:26.523Z,1006.06
2019-05-22T03:21:26.513Z,1006.05
2019-05-22T03:22:26.509Z,1006.04
2019-05-22T03:23:26.490Z,1006.06
2019-05-22T03:24:26.480Z,1006.02
2019-05-22T03:25:26.501Z,1006.06
2019-05-22T03:26:26.456Z,1006.04
2019-05-22T03:27:26.447Z,1006.03
2019-05-22T03:28:26.434Z,1006.08
2019-05-22T03:29:26.423Z,1006.09
2019-05-22T03:30:26.414Z,1006.07
2019-05-22T03:31:26.408Z,1006.11
2019-05-22T03:32:26.389Z,1006.00
2019-05-22T03:33:26.384Z,1006.07
2019-05-22T03:34:26.403Z,1006.09
2019-05-22T03:35:26.410Z,1006.09
2019-05-22T03:36:26.345Z,1006.07
2019-05-22T03:37:26.354Z,1006.11
2019-05-22T03:38:26.322Z,1006.08
2019-05-22T03:39:26.311Z,1006.08
2019-05-22T03:40:26.311Z,1006.07
2019-05-22T03:41:26.290Z,1006.06
2019-05-22T03:42:26.277Z,1006.06
2019-05-22T03:43:26.273Z,1006.08
2019-05-22T03:44:26.256Z,1006.05
2019-05-22T03:45:26.245Z,1006.08
2019-05-22T03:46:26.232Z,1006.09
2019-05-22T03:47:26.229Z,1006.11
2019-05-22T03:48:26.210Z,1006.14
2019-05-22T03:49:30.538Z,1006.16
2019-05-22T03:50:26.187Z,1006.13
2019-05-22T03:51:26.181Z,1006.11
2019-05-22T03:52:26.166Z,1006.12
2019-05-22T03:53:26.156Z,1006.12
2019-05-22T03:54:26.147Z,1006.18
2019-05-22T03:55:26.159Z,1006.20
2019-05-22T03:56:26.120Z,1006.19
2019-05-22T03:57:26.109Z,1006.23
2019-05-22T03:58:26.099Z,1006.20
2019-05-22T03:59:26.090Z,1006.17
2019-05-22T04:00:26.077Z,1006.24
2019-05-22T04:01:26.073Z,1006.21
2019-05-22T04:02:26.054Z,1006.24
2019-05-22T04:03:26.045Z,1006.23
2019-05-22T04:04:26.031Z,1006.27
2019-05-22T04:05:26.021Z,1006.24
2019-05-22T04:06:26.015Z,1006.27
2019-05-22T04:07:26.029Z,1006.26
2019-05-22T04:08:25.992Z,1006.28
2019-05-22T04:09:25.975Z,1006.31
2019-05-22T04:10:25.970Z,1006.37
2019-05-22T04:11:25.953Z,1006.34
2019-05-22T04:12:25.943Z,1006.37
2019-05-22T04:13:25.940Z,1006.34
2019-05-22T04:14:25.920Z,1006.37
2019-05-22T04:15:25.909Z,1006.37
2019-05-22T04:16:25.899Z,1006.43
2019-05-22T04:17:25.885Z,1006.38
2019-05-22T04:18:25.879Z,1006.40
2019-05-22T04:19:25.872Z,1006.43
2019-05-22T04:20:25.853Z,1006.41
2019-05-22T04:21:25.840Z,1006.40
2019-05-22T04:22:25.830Z,1006.45
2019-05-22T04:23:25.860Z,1006.39
2019-05-22T04:24:25.809Z,1006.41
2019-05-22T04:25:25.807Z,1006.42
2019-05-22T04:26:25.788Z,1006.43
2019-05-22T04:27:25.778Z,1006.47
2019-05-22T04:28:25.766Z,1006.51
2019-05-22T04:29:25.751Z,1006.48
2019-05-22T04:30:25.742Z,1006.47
2019-05-22T04:31:25.763Z,1006.46
2019-05-22T04:32:25.719Z,1006.47
2019-05-22T04:33:25.712Z,1006.47
2019-05-22T04:34:25.697Z,1006.45
2019-05-22T04:35:25.684Z,1006.43
2019-05-22T04:36:25.674Z,1006.44
2019-05-22T04:37:25.671Z,1006.43
2019-05-22T04:38:25.657Z,1006.46
2019-05-22T04:39:25.641Z,1006.42
2019-05-22T04:40:25.646Z,1006.44
2019-05-22T04:41:25.618Z,1006.48
2019-05-22T04:42:25.607Z,1006.51
2019-05-22T04:43:25.626Z,1006.48
2019-05-22T04:44:25.587Z,1006.50
2019-05-22T04:45:25.580Z,1006.56
2019-05-22T04:46:25.562Z,1006.51
2019-05-22T04:47:25.551Z,1006.54
2019-05-22T04:48:25.541Z,1006.54
2019-05-22T04:49:25.541Z,1006.54
2019-05-22T04:50:25.518Z,1006.55
2019-05-22T04:51:25.516Z,1006.58
2019-05-22T04:52:25.495Z,1006.60
2019-05-22T04:53:25.484Z,1006.60
2019-05-22T04:54:25.473Z,1006.59
2019-05-22T04:55:25.493Z,1006.56
2019-05-22T04:56:25.452Z,1006.58
2019-05-22T04:57:25.439Z,1006.60
2019-05-22T04:58:25.431Z,1006.57
2019-05-22T04:59:25.417Z,1006.57
2019-05-22T05:00:25.407Z,1006.58
2019-05-22T05:01:25.477Z,1006.65
2019-05-22T05:02:25.382Z,1006.64
2019-05-22T05:03:25.371Z,1006.64
2019-05-22T05:04:25.406Z,1006.63
2019-05-22T05:05:25.349Z,1006.64
2019-05-22T05:06:25.339Z,1006.60
2019-05-22T05:07:25.357Z,1006.62
2019-05-22T05:08:25.317Z,1006.66
2019-05-22T05:09:25.305Z,1006.69
2019-05-22T05:10:25.293Z,1006.69
2019-05-22T05:11:25.292Z,1006.69
2019-05-22T05:12:25.272Z,1006.76
2019-05-22T05:13:25.291Z,1006.76
2019-05-22T05:14:25.249Z,1006.73
2019-05-22T05:15:25.237Z,1006.76
2019-05-22T05:16:25.225Z,1006.74
2019-05-22T05:17:25.214Z,1006.77
2019-05-22T05:18:25.205Z,1006.76
2019-05-22T05:19:25.199Z,1006.75
2019-05-22T05:20:25.183Z,1006.74
2019-05-22T05:21:25.170Z,1006.75
2019-05-22T05:22:25.159Z,1006.78
2019-05-22T05:23:25.151Z,1006.76
2019-05-22T05:24:25.136Z,1006.75
2019-05-22T05:25:25.155Z,1006.78
2019-05-22T05:26:25.119Z,1006.74
2019-05-22T05:27:25.103Z,1006.72
2019-05-22T05:28:25.092Z,1006.73
2019-05-22T05:29:25.081Z,1006.74
2019-05-22T05:30:25.071Z,1006.75
2019-05-22T05:31:25.089Z,1006.72
2019-05-22T05:32:25.047Z,1006.70
2019-05-22T05:33:25.036Z,1006.71
2019-05-22T05:34:25.028Z,1006.73
2019-05-22T05:35:25.014Z,1006.70
2019-05-22T05:36:25.004Z,1006.74
2019-05-22T05:37:25.007Z,1006.73
2019-05-22T05:38:24.987Z,1006.72
2019-05-22T05:39:24.969Z,1006.78
2019-05-22T05:40:24.958Z,1006.77
2019-05-22T05:41:24.946Z,1006.80
2019-05-22T05:42:24.935Z,1006.75
2019-05-22T05:43:24.954Z,1006.79
2019-05-22T05:44:24.914Z,1006.76
2019-05-22T05:45:24.902Z,1006.80
2019-05-22T05:46:24.891Z,1006.76
2019-05-22T05:47:24.880Z,1006.77
2019-05-22T05:48:24.869Z,1006.76
2019-05-22T05:49:24.863Z,1006.71
2019-05-22T05:50:38.299Z,1006.79
2019-05-22T05:51:25.834Z,1006.77
2019-05-22T05:52:24.824Z,1006.72
2019-05-22T05:53:24.825Z,1006.76
2019-05-22T05:54:24.801Z,1006.75
2019-05-22T05:55:24.800Z,1006.78
2019-05-22T05:56:24.781Z,1006.74
2019-05-22T05:57:24.780Z,1006.74
2019-05-22T05:58:24.864Z,1006.74
2019-05-22T05:59:24.746Z,1006.76
2019-05-22T06:00:24.734Z,1006.77
2019-05-22T06:01:24.730Z,1006.78
2019-05-22T06:02:24.712Z,1006.81
2019-05-22T06:03:24.715Z,1006.79
2019-05-22T06:04:33.979Z,1006.81
2019-05-22T06:05:25.677Z,1006.89
2019-05-22T06:06:24.668Z,1006.91
2019-05-22T06:07:24.664Z,1006.90
2019-05-22T06:08:24.645Z,1006.88
2019-05-22T06:09:24.636Z,1006.94
2019-05-22T06:10:24.623Z,1006.97
2019-05-22T06:11:24.614Z,1006.98
2019-05-22T06:12:24.600Z,1007.00
2019-05-22T06:13:24.596Z,1007.00
2019-05-22T06:14:24.579Z,1007.01
2019-05-22T06:15:24.573Z,1007.01
2019-05-22T06:16:24.555Z,1007.05
2019-05-22T06:17:24.545Z,1007.04
2019-05-22T06:18:24.533Z,1007.07
2019-05-22T06:19:24.528Z,1007.07
2019-05-22T06:20:24.511Z,1007.04
2019-05-22T06:21:24.500Z,1007.07
2019-05-22T06:22:24.489Z,1007.13
2019-05-22T06:23:24.477Z,1007.10
2019-05-22T06:24:24.468Z,1007.09
2019-05-22T06:25:24.464Z,1007.10
2019-05-22T06:26:24.449Z,1007.07
2019-05-22T06:27:24.432Z,1007.10
2019-05-22T06:28:24.423Z,1007.13
2019-05-22T06:29:27.814Z,1007.10
2019-05-22T06:30:24.399Z,1007.15
2019-05-22T06:31:24.402Z,1007.11
2019-05-22T06:32:24.377Z,1007.07
2019-05-22T06:33:24.366Z,1007.14
2019-05-22T06:34:24.379Z,1007.08
2019-05-22T06:35:24.344Z,1007.13
2019-05-22T06:36:24.334Z,1007.11
2019-05-22T06:37:24.350Z,1007.15
2019-05-22T06:38:24.310Z,1007.12
2019-05-22T06:39:24.298Z,1007.13
2019-05-22T06:40:24.287Z,1007.13
2019-05-22T06:41:24.328Z,1007.25
2019-05-22T06:42:24.265Z,1007.20
2019-05-22T06:43:24.284Z,1007.28
2019-05-22T06:44:24.242Z,1007.23
2019-05-22T06:45:24.240Z,1007.22
2019-05-22T06:46:24.220Z,1007.27
2019-05-22T06:47:24.209Z,1007.32
2019-05-22T06:48:24.214Z,1007.34
2019-05-22T06:49:24.194Z,1007.37
2019-05-22T06:50:24.176Z,1007.42
2019-05-22T06:51:24.170Z,1007.42
2019-05-22T06:52:24.154Z,1007.39
2019-05-22T06:53:24.142Z,1007.45
2019-05-22T06:54:24.130Z,1007.43
2019-05-22T06:55:24.149Z,1007.39
2019-05-22T06:56:24.121Z,1007.45
2019-05-22T06:57:24.102Z,1007.47
2019-05-22T06:58:24.086Z,1007.45
2019-05-22T06:59:24.076Z,1007.47
2019-05-22T07:00:24.063Z,1007.52
2019-05-22T07:01:24.059Z,1007.50
2019-05-22T07:02:24.040Z,1007.53
2019-05-22T07:03:24.030Z,1007.52
2019-05-22T07:04:24.021Z,1007.58
2019-05-22T07:05:24.007Z,1007.56
2019-05-22T07:06:24.000Z,1007.55
2019-05-22T07:07:24.017Z,1007.58
2019-05-22T07:08:23.990Z,1007.53
2019-05-22T07:09:23.962Z,1007.52
2019-05-22T07:10:23.952Z,1007.56
2019-05-22T07:11:23.956Z,1007.54
2019-05-22T07:12:23.930Z,1007.59
2019-05-22T07:13:23.948Z,1007.59
2019-05-22T07:14:23.912Z,1007.58
2019-05-22T07:15:23.896Z,1007.61
2019-05-22T07:16:23.884Z,1007.58
2019-05-22T07:17:23.874Z,1007.62
2019-05-22T07:18:23.866Z,1007.62
2019-05-22T07:19:23.881Z,1007.63
2019-05-22T07:20:23.845Z,1007.66
2019-05-22T07:21:33.580Z,1007.67
2019-05-22T07:22:24.816Z,1007.72
2019-05-22T07:23:23.808Z,1007.72
2019-05-22T07:24:23.798Z,1007.69
2019-05-22T07:25:23.792Z,1007.69
2019-05-22T07:26:23.773Z,1007.76
2019-05-22T07:27:23.763Z,1007.71
2019-05-22T07:28:23.750Z,1007.69
2019-05-22T07:29:23.739Z,1007.70
2019-05-22T07:30:23.729Z,1007.70
2019-05-22T07:31:23.725Z,1007.67
2019-05-22T07:32:23.706Z,1007.70
2019-05-22T07:33:23.707Z,1007.77
2019-05-22T07:34:23.684Z,1007.76
2019-05-22T07:35:23.672Z,1007.74
2019-05-22T07:36:23.661Z,1007.73
2019-05-22T07:37:23.659Z,1007.72
2019-05-22T07:38:23.639Z,1007.72
2019-05-22T07:39:23.630Z,1007.76
2019-05-22T07:40:23.621Z,1007.74
2019-05-22T07:41:23.612Z,1007.73
2019-05-22T07:42:23.598Z,1007.83
2019-05-22T07:43:23.596Z,1007.85
2019-05-22T07:44:23.574Z,1007.79
2019-05-22T07:45:23.560Z,1007.83
2019-05-22T07:46:23.553Z,1007.84
2019-05-22T07:47:23.561Z,1007.84
2019-05-22T07:48:23.528Z,1007.83
2019-05-22T07:49:23.525Z,1007.87
2019-05-22T07:50:23.508Z,1007.89
2019-05-22T07:51:23.499Z,1007.90
2019-05-22T07:52:23.482Z,1007.90
2019-05-22T07:53:23.471Z,1007.99
2019-05-22T07:54:23.463Z,1007.95
2019-05-22T07:55:23.458Z,1008.03
2019-05-22T07:56:23.438Z,1007.99
2019-05-22T07:57:23.426Z,1008.06
2019-05-22T07:58:23.416Z,1007.99
2019-05-22T07:59:23.406Z,1008.04
2019-05-22T08:00:23.399Z,1008.04
2019-05-22T08:01:23.391Z,1008.00
2019-05-22T08:02:23.371Z,1008.01
2019-05-22T08:03:23.363Z,1008.01
2019-05-22T08:04:23.349Z,1008.04
2019-05-22T08:05:23.337Z,1007.99
2019-05-22T08:06:23.328Z,1008.06
2019-05-22T08:07:23.328Z,1008.06
2019-05-22T08:08:23.303Z,1008.13
2019-05-22T08:09:23.292Z,1008.05
2019-05-22T08:10:23.282Z,1008.02
2019-05-22T08:11:23.270Z,1008.08
2019-05-22T08:12:23.260Z,1008.12
2019-05-22T08:13:23.278Z,1008.09
2019-05-22T08:14:23.238Z,1008.04
2019-05-22T08:15:23.250Z,1008.02
2019-05-22T08:16:23.214Z,1008.04
2019-05-22T08:17:23.203Z,1007.99
2019-05-22T08:18:23.194Z,1008.02
2019-05-22T08:19:23.215Z,1007.94
2019-05-22T08:20:23.169Z,1007.96
2019-05-22T08:21:23.723Z,1007.95
2019-05-22T08:22:23.147Z,1008.02
2019-05-22T08:23:23.136Z,1007.94
2019-05-22T08:24:23.125Z,1007.96
2019-05-22T08:25:23.122Z,1007.95
2019-05-22T08:26:23.102Z,1007.95
2019-05-22T08:27:23.092Z,1007.96
2019-05-22T08:28:23.087Z,1007.97
2019-05-22T08:29:23.070Z,1007.97
2019-05-22T08:30:23.058Z,1007.99
2019-05-22T08:31:23.059Z,1008.02
2019-05-22T08:32:23.036Z,1007.95
2019-05-22T08:33:23.028Z,1008.01
2019-05-22T08:34:23.014Z,1008.01
2019-05-22T08:35:23.002Z,1008.06
2019-05-22T08:36:22.992Z,1008.00
2019-05-22T08:37:22.989Z,1007.97
2019-05-22T08:38:22.969Z,1008.00
2019-05-22T08:39:22.957Z,1008.09
2019-05-22T08:40:22.946Z,1008.08
2019-05-22T08:41:22.936Z,1008.03
2019-05-22T08:42:22.923Z,1008.07
2019-05-22T08:43:22.922Z,1008.16
2019-05-22T08:44:22.902Z,1008.13
2019-05-22T08:45:22.891Z,1008.09
2019-05-22T08:46:22.885Z,1008.09
2019-05-22T08:47:22.868Z,1008.14
2019-05-22T08:48:22.860Z,1008.15
2019-05-22T08:49:22.891Z,1008.22
2019-05-22T08:50:22.835Z,1008.21
2019-05-22T08:51:22.826Z,1008.21
2019-05-22T08:52:24.109Z,1008.26
2019-05-22T08:53:22.804Z,1008.26
2019-05-22T08:54:22.802Z,1008.31
2019-05-22T08:55:22.864Z,1008.34
2019-05-22T08:56:22.769Z,1008.36
2019-05-22T08:57:22.766Z,1008.37
2019-05-22T08:58:22.746Z,1008.43
2019-05-22T08:59:22.734Z,1008.38
2019-05-22T09:00:22.725Z,1008.44
2019-05-22T09:01:22.729Z,1008.48
2019-05-22T09:02:22.700Z,1008.52
2019-05-22T09:03:22.689Z,1008.51
2019-05-22T09:04:22.685Z,1008.52
2019-05-22T09:05:22.668Z,1008.55
2019-05-22T09:06:22.658Z,1008.57
2019-05-22T09:07:22.664Z,1008.59
2019-05-22T09:08:22.634Z,1008.59
2019-05-22T09:09:22.626Z,1008.58
2019-05-22T09:10:25.962Z,1008.60
2019-05-22T09:11:22.600Z,1008.64
2019-05-22T09:12:22.588Z,1008.57
2019-05-22T09:13:22.583Z,1008.63
2019-05-22T09:14:22.567Z,1008.65
2019-05-22T09:15:22.558Z,1008.63
2019-05-22T09:16:22.546Z,1008.63
2019-05-22T09:17:22.534Z,1008.65
2019-05-22T09:18:22.521Z,1008.72
2019-05-22T09:19:22.518Z,1008.65
2019-05-22T09:20:22.502Z,1008.69
2019-05-22T09:21:22.488Z,1008.66
2019-05-22T09:22:22.477Z,1008.73
2019-05-22T09:23:22.475Z,1008.71
2019-05-22T09:24:22.460Z,1008.67
2019-05-22T09:25:22.477Z,1008.67
2019-05-22T09:26:22.432Z,1008.64
2019-05-22T09:27:22.422Z,1008.65
2019-05-22T09:28:22.410Z,1008.68
2019-05-22T09:29:22.411Z,1008.58
2019-05-22T09:30:22.388Z,1008.60
2019-05-22T09:31:22.397Z,1008.55
2019-05-22T09:32:22.364Z,1008.62
2019-05-22T09:33:22.352Z,1008.60
2019-05-22T09:34:22.343Z,1008.62
2019-05-22T09:35:22.414Z,1008.65
2019-05-22T09:36:22.319Z,1008.59
2019-05-22T09:37:22.316Z,1008.65
2019-05-22T09:38:22.298Z,1008.64
2019-05-22T09:39:22.290Z,1008.63
2019-05-22T09:40:22.278Z,1008.63
2019-05-22T09:41:22.263Z,1008.59
2019-05-22T09:42:22.287Z,1008.65
2019-05-22T09:43:22.248Z,1008.60
2019-05-22T09:44:22.230Z,1008.71
2019-05-22T09:45:22.218Z,1008.62
2019-05-22T09:46:22.208Z,1008.68
2019-05-22T09:47:22.199Z,1008.65
2019-05-22T09:48:22.193Z,1008.70
2019-05-22T09:49:24.020Z,1008.71
2019-05-22T09:50:22.165Z,1008.72
2019-05-22T09:51:22.154Z,1008.74
2019-05-22T09:52:22.141Z,1008.78
2019-05-22T09:53:22.130Z,1008.71
2019-05-22T09:54:22.121Z,1008.76
2019-05-22T09:55:22.117Z,1008.77
2019-05-22T09:56:22.097Z,1008.80
2019-05-22T09:57:22.085Z,1008.78
2019-05-22T09:58:22.076Z,1008.80
2019-05-22T09:59:22.062Z,1008.80
2019-05-22T10:00:22.051Z,1008.75
2019-05-22T10:01:22.140Z,1008.75
2019-05-22T10:02:22.029Z,1008.79
2019-05-22T10:03:22.020Z,1008.77
2019-05-22T10:04:22.009Z,1008.80
2019-05-22T10:05:21.996Z,1008.83
2019-05-22T10:06:28.146Z,1008.86
2019-05-22T10:07:21.974Z,1008.85
2019-05-22T10:08:21.962Z,1008.83
2019-05-22T10:09:21.952Z,1008.89
2019-05-22T10:10:21.946Z,1008.91
2019-05-22T10:11:21.928Z,1008.86
2019-05-22T10:12:21.951Z,1008.88
2019-05-22T10:13:22.102Z,1008.86
2019-05-22T10:14:21.897Z,1008.92
2019-05-22T10:15:21.997Z,1008.84
2019-05-22T10:16:21.874Z,1008.91
2019-05-22T10:17:21.860Z,1008.86
2019-05-22T10:18:21.891Z,1008.86
2019-05-22T10:19:21.840Z,1008.90
2019-05-22T10:20:21.829Z,1008.92
2019-05-22T10:21:21.869Z,1008.99
2019-05-22T10:22:21.807Z,1008.99
2019-05-22T10:23:21.798Z,1009.01
2019-05-22T10:24:21.812Z,1008.99
2019-05-22T10:25:21.772Z,1008.99
2019-05-22T10:26:21.761Z,1008.97
2019-05-22T10:27:21.753Z,1009.00
2019-05-22T10:28:21.739Z,1008.99
2019-05-22T10:29:21.736Z,1008.99
2019-05-22T10:30:21.750Z,1009.00
2019-05-22T10:31:21.954Z,1009.05
2019-05-22T10:32:21.698Z,1009.03
2019-05-22T10:33:21.684Z,1009.04
2019-05-22T10:34:21.673Z,1009.03
2019-05-22T10:35:21.663Z,1009.01
2019-05-22T10:36:21.677Z,1009.02
2019-05-22T10:37:21.638Z,1009.07
2019-05-22T10:38:21.626Z,1009.02
2019-05-22T10:39:24.621Z,1009.03
2019-05-22T10:40:21.606Z,1009.07
2019-05-22T10:41:21.593Z,1009.11
2019-05-22T10:42:21.623Z,1009.06
2019-05-22T10:43:21.571Z,1009.15
2019-05-22T10:44:21.560Z,1009.12
2019-05-22T10:45:21.550Z,1009.15
2019-05-22T10:46:21.537Z,1009.14
2019-05-22T10:47:21.532Z,1009.16
2019-05-22T10:48:21.530Z,1009.17
2019-05-22T10:49:21.503Z,1009.17
2019-05-22T10:50:21.494Z,1009.17
2019-05-22T10:51:21.481Z,1009.19
2019-05-22T10:52:21.538Z,1009.18
2019-05-22T10:53:32.966Z,1009.23
2019-05-22T10:54:22.475Z,1009.21
2019-05-22T10:55:21.449Z,1009.24
2019-05-22T10:56:21.426Z,1009.22
2019-05-22T10:57:21.415Z,1009.26
2019-05-22T10:58:21.405Z,1009.26
2019-05-22T10:59:21.398Z,1009.30
2019-05-22T11:00:21.393Z,1009.29
2019-05-22T11:01:21.369Z,1009.28
2019-05-22T11:02:21.358Z,1009.24
2019-05-22T11:03:21.346Z,1009.34
2019-05-22T11:04:21.338Z,1009.28
2019-05-22T11:05:21.325Z,1009.31
2019-05-22T11:06:21.326Z,1009.38
2019-05-22T11:07:21.304Z,1009.32
2019-05-22T11:08:21.305Z,1009.39
2019-05-22T11:09:21.282Z,1009.32
2019-05-22T11:10:21.271Z,1009.39
2019-05-22T11:11:21.259Z,1009.36
2019-05-22T11:12:21.275Z,1009.36
2019-05-22T11:13:21.236Z,1009.46
2019-05-22T11:14:21.225Z,1009.39
2019-05-22T11:15:21.277Z,1009.41
2019-05-22T11:16:21.201Z,1009.40
2019-05-22T11:17:21.190Z,1009.42
2019-05-22T11:18:21.188Z,1009.41
2019-05-22T11:19:21.168Z,1009.47
2019-05-22T11:20:21.159Z,1009.44
2019-05-22T11:21:21.147Z,1009.46
2019-05-22T11:22:21.136Z,1009.45
2019-05-22T11:23:21.128Z,1009.43
2019-05-22T11:24:21.143Z,1009.49
2019-05-22T11:25:21.103Z,1009.47
2019-05-22T11:26:21.093Z,1009.45
2019-05-22T11:27:21.158Z,1009.43
2019-05-22T11:28:21.068Z,1009.46
2019-05-22T11:29:21.066Z,1009.49
2019-05-22T11:30:21.075Z,1009.42
2019-05-22T11:31:21.044Z,1009.47
2019-05-22T11:32:21.023Z,1009.44
2019-05-22T11:33:21.013Z,1009.47
2019-05-22T11:34:21.001Z,1009.50
2019-05-22T11:35:21.012Z,1009.48
2019-05-22T11:36:21.009Z,1009.44
2019-05-22T11:37:20.981Z,1009.48
2019-05-22T11:38:20.959Z,1009.49
2019-05-22T11:39:37.649Z,1009.55
2019-05-22T11:40:21.933Z,1009.50
2019-05-22T11:41:20.982Z,1009.45
2019-05-22T11:42:20.942Z,1009.53
2019-05-22T11:43:20.900Z,1009.51
2019-05-22T11:44:20.888Z,1009.52
2019-05-22T11:45:20.880Z,1009.49
2019-05-22T11:46:20.867Z,1009.48
2019-05-22T11:47:20.858Z,1009.50
2019-05-22T11:48:20.851Z,1009.50
2019-05-22T11:49:20.834Z,1009.52
2019-05-22T11:50:20.823Z,1009.56
2019-05-22T11:51:20.810Z,1009.54
2019-05-22T11:52:20.800Z,1009.51
2019-05-22T11:53:20.789Z,1009.56
2019-05-22T11:54:20.786Z,1009.51
2019-05-22T11:55:20.765Z,1009.58
2019-05-22T11:56:20.755Z,1009.51
2019-05-22T11:57:20.744Z,1009.53
2019-05-22T11:58:20.732Z,1009.56
2019-05-22T11:59:20.722Z,1009.61
2019-05-22T12:00:20.718Z,1009.57
2019-05-22T12:01:20.698Z,1009.56
2019-05-22T12:02:20.687Z,1009.62
2019-05-22T12:03:20.676Z,1009.64
2019-05-22T12:04:20.665Z,1009.57
2019-05-22T12:05:20.659Z,1009.65